sensor_id;sensor_type;location;lat;lon;timestamp;P1;durP1;ratioP1;P2;durP2;ratioP2
3769;SDS011;1900;48.890;9.190;2023-08-08T00:01:20;4.23;;;2.40;;
3769;SDS011;1900;48.890;9.190;2023-08-08T00:03:46;4.80;;;2.53;;
3769;SDS011;1900;48.890;9.190;2023-08-08T00:06:12;6.40;;;3.57;;
3769;SDS011;1900;48.890;9.190;2023-08-08T00:08:37;2.70;;;2.47;;
3769;SDS011;1900;48.890;9.190;2023-08-08T00:11:03;3.67;;;2.47;;
3769;SDS011;1900;48.890;9.190;2023-08-08T00:13:29;4.00;;;2.60;;
3769;SDS011;1900;48.890;9.190;2023-08-08T00:15:54;3.97;;;2.60;;
3769;SDS011;1900;48.890;9.190;2023-08-08T00:18:20;3.37;;;2.80;;
3769;SDS011;1900;48.890;9.190;2023-08-08T00:20:46;5.67;;;3.20;;
3769;SDS011;1900;48.890;9.190;2023-08-08T00:23:11;5.20;;;3.03;;
3769;SDS011;1900;48.890;9.190;2023-08-08T00:25:37;6.47;;;3.90;;
3769;SDS011;1900;48.890;9.190;2023-08-08T00:28:03;5.83;;;2.90;;
3769;SDS011;1900;48.890;9.190;2023-08-08T00:30:29;4.27;;;3.40;;
3769;SDS011;1900;48.890;9.190;2023-08-08T00:32:54;4.17;;;2.90;;
3769;SDS011;1900;48.890;9.190;2023-08-08T00:35:20;4.60;;;2.67;;
3769;SDS011;1900;48.890;9.190;2023-08-08T00:37:46;2.77;;;2.33;;
3769;SDS011;1900;48.890;9.190;2023-08-08T00:40:11;4.93;;;2.60;;
3769;SDS011;1900;48.890;9.190;2023-08-08T00:42:37;2.87;;;2.13;;
3769;SDS011;1900;48.890;9.190;2023-08-08T00:45:03;3.90;;;2.67;;
3769;SDS011;1900;48.890;9.190;2023-08-08T00:47:32;4.07;;;2.60;;
3769;SDS011;1900;48.890;9.190;2023-08-08T00:50:01;5.90;;;2.50;;
3769;SDS011;1900;48.890;9.190;2023-08-08T00:52:27;3.80;;;2.60;;
3769;SDS011;1900;48.890;9.190;2023-08-08T00:54:54;8.37;;;2.83;;
3769;SDS011;1900;48.890;9.190;2023-08-08T00:57:20;6.00;;;3.10;;
3769;SDS011;1900;48.890;9.190;2023-08-08T00:59:46;7.07;;;4.43;;
3769;SDS011;1900;48.890;9.190;2023-08-08T01:02:14;5.23;;;3.10;;
3769;SDS011;1900;48.890;9.190;2023-08-08T01:04:39;14.27;;;2.90;;
3769;SDS011;1900;48.890;9.190;2023-08-08T01:07:08;6.50;;;3.60;;
3769;SDS011;1900;48.890;9.190;2023-08-08T01:10:41;5.73;;;3.00;;
3769;SDS011;1900;48.890;9.190;2023-08-08T01:12:59;4.53;;;2.90;;
3769;SDS011;1900;48.890;9.190;2023-08-08T01:15:28;4.53;;;3.50;;
3769;SDS011;1900;48.890;9.190;2023-08-08T01:18:00;7.77;;;3.10;;
3769;SDS011;1900;48.890;9.190;2023-08-08T01:20:30;3.73;;;2.60;;
3769;SDS011;1900;48.890;9.190;2023-08-08T01:25:39;3.63;;;2.77;;
3769;SDS011;1900;48.890;9.190;2023-08-08T01:28:06;11.90;;;2.63;;
3769;SDS011;1900;48.890;9.190;2023-08-08T01:30:32;2.77;;;2.57;;
3769;SDS011;1900;48.890;9.190;2023-08-08T01:32:59;4.13;;;2.43;;
3769;SDS011;1900;48.890;9.190;2023-08-08T01:35:28;3.10;;;2.20;;
3769;SDS011;1900;48.890;9.190;2023-08-08T01:37:59;2.70;;;2.30;;
3769;SDS011;1900;48.890;9.190;2023-08-08T01:40:32;3.00;;;2.37;;
3769;SDS011;1900;48.890;9.190;2023-08-08T01:42:59;3.60;;;2.63;;
3769;SDS011;1900;48.890;9.190;2023-08-08T01:45:24;2.37;;;2.00;;
3769;SDS011;1900;48.890;9.190;2023-08-08T01:47:50;2.33;;;1.70;;
3769;SDS011;1900;48.890;9.190;2023-08-08T01:50:16;4.80;;;2.13;;
3769;SDS011;1900;48.890;9.190;2023-08-08T01:52:42;11.00;;;2.30;;
3769;SDS011;1900;48.890;9.190;2023-08-08T01:55:08;3.60;;;3.03;;
3769;SDS011;1900;48.890;9.190;2023-08-08T01:57:34;3.27;;;2.27;;
3769;SDS011;1900;48.890;9.190;2023-08-08T02:00:00;3.00;;;2.00;;
3769;SDS011;1900;48.890;9.190;2023-08-08T02:02:27;3.03;;;2.10;;
3769;SDS011;1900;48.890;9.190;2023-08-08T02:04:53;3.47;;;2.47;;
3769;SDS011;1900;48.890;9.190;2023-08-08T02:07:18;6.53;;;3.47;;
3769;SDS011;1900;48.890;9.190;2023-08-08T02:09:44;3.03;;;2.60;;
3769;SDS011;1900;48.890;9.190;2023-08-08T02:12:11;7.23;;;3.47;;
3769;SDS011;1900;48.890;9.190;2023-08-08T02:14:36;4.20;;;3.23;;
3769;SDS011;1900;48.890;9.190;2023-08-08T02:17:02;3.67;;;2.87;;
3769;SDS011;1900;48.890;9.190;2023-08-08T02:19:30;3.27;;;2.50;;
3769;SDS011;1900;48.890;9.190;2023-08-08T02:21:55;3.17;;;2.87;;
3769;SDS011;1900;48.890;9.190;2023-08-08T02:24:21;4.80;;;2.33;;
3769;SDS011;1900;48.890;9.190;2023-08-08T02:26:47;3.60;;;1.93;;
3769;SDS011;1900;48.890;9.190;2023-08-08T02:29:13;3.67;;;2.40;;
3769;SDS011;1900;48.890;9.190;2023-08-08T02:31:38;6.10;;;2.53;;
3769;SDS011;1900;48.890;9.190;2023-08-08T02:34:04;3.87;;;2.30;;
3769;SDS011;1900;48.890;9.190;2023-08-08T02:36:30;2.50;;;2.07;;
3769;SDS011;1900;48.890;9.190;2023-08-08T02:38:55;5.00;;;2.63;;
3769;SDS011;1900;48.890;9.190;2023-08-08T02:41:21;6.13;;;2.53;;
3769;SDS011;1900;48.890;9.190;2023-08-08T02:43:47;2.80;;;2.27;;
3769;SDS011;1900;48.890;9.190;2023-08-08T02:46:12;4.10;;;2.30;;
3769;SDS011;1900;48.890;9.190;2023-08-08T02:48:38;2.07;;;1.83;;
3769;SDS011;1900;48.890;9.190;2023-08-08T02:51:04;3.07;;;2.33;;
3769;SDS011;1900;48.890;9.190;2023-08-08T02:53:30;2.70;;;2.10;;
3769;SDS011;1900;48.890;9.190;2023-08-08T02:55:56;2.93;;;2.37;;
3769;SDS011;1900;48.890;9.190;2023-08-08T02:58:22;4.47;;;2.30;;
3769;SDS011;1900;48.890;9.190;2023-08-08T03:00:48;5.63;;;2.27;;
3769;SDS011;1900;48.890;9.190;2023-08-08T03:03:15;1.80;;;1.70;;
3769;SDS011;1900;48.890;9.190;2023-08-08T03:05:43;6.40;;;2.50;;
3769;SDS011;1900;48.890;9.190;2023-08-08T03:08:09;8.00;;;2.47;;
3769;SDS011;1900;48.890;9.190;2023-08-08T03:10:37;3.60;;;2.20;;
3769;SDS011;1900;48.890;9.190;2023-08-08T03:13:03;3.60;;;2.37;;
3769;SDS011;1900;48.890;9.190;2023-08-08T03:15:30;4.30;;;2.37;;
3769;SDS011;1900;48.890;9.190;2023-08-08T03:17:56;3.10;;;2.07;;
3769;SDS011;1900;48.890;9.190;2023-08-08T03:20:22;3.50;;;2.43;;
3769;SDS011;1900;48.890;9.190;2023-08-08T03:22:48;2.23;;;2.00;;
3769;SDS011;1900;48.890;9.190;2023-08-08T03:25:14;3.43;;;2.27;;
3769;SDS011;1900;48.890;9.190;2023-08-08T03:27:40;3.50;;;2.13;;
3769;SDS011;1900;48.890;9.190;2023-08-08T03:30:08;2.80;;;1.80;;
3769;SDS011;1900;48.890;9.190;2023-08-08T03:32:39;2.30;;;2.10;;
3769;SDS011;1900;48.890;9.190;2023-08-08T03:35:06;2.23;;;2.03;;
3769;SDS011;1900;48.890;9.190;2023-08-08T03:37:33;3.97;;;2.60;;
3769;SDS011;1900;48.890;9.190;2023-08-08T03:39:58;7.10;;;2.07;;
3769;SDS011;1900;48.890;9.190;2023-08-08T03:42:24;3.93;;;2.47;;
3769;SDS011;1900;48.890;9.190;2023-08-08T03:44:50;3.77;;;2.23;;
3769;SDS011;1900;48.890;9.190;2023-08-08T03:47:15;4.17;;;2.67;;
3769;SDS011;1900;48.890;9.190;2023-08-08T03:49:41;4.30;;;2.40;;
3769;SDS011;1900;48.890;9.190;2023-08-08T03:52:07;5.33;;;2.60;;
3769;SDS011;1900;48.890;9.190;2023-08-08T03:54:32;3.73;;;2.87;;
3769;SDS011;1900;48.890;9.190;2023-08-08T03:56:58;4.53;;;2.10;;
3769;SDS011;1900;48.890;9.190;2023-08-08T03:59:24;2.90;;;2.07;;
3769;SDS011;1900;48.890;9.190;2023-08-08T04:01:49;3.80;;;2.30;;
3769;SDS011;1900;48.890;9.190;2023-08-08T04:04:15;6.60;;;3.23;;
3769;SDS011;1900;48.890;9.190;2023-08-08T04:06:42;5.17;;;3.30;;
3769;SDS011;1900;48.890;9.190;2023-08-08T04:09:07;3.90;;;2.90;;
3769;SDS011;1900;48.890;9.190;2023-08-08T04:11:33;4.37;;;2.90;;
3769;SDS011;1900;48.890;9.190;2023-08-08T04:14:01;5.53;;;3.17;;
3769;SDS011;1900;48.890;9.190;2023-08-08T04:16:27;6.83;;;3.13;;
3769;SDS011;1900;48.890;9.190;2023-08-08T04:18:53;3.67;;;2.40;;
3769;SDS011;1900;48.890;9.190;2023-08-08T04:21:19;4.00;;;2.27;;
3769;SDS011;1900;48.890;9.190;2023-08-08T04:23:44;4.53;;;2.40;;
3769;SDS011;1900;48.890;9.190;2023-08-08T04:26:10;4.50;;;3.20;;
3769;SDS011;1900;48.890;9.190;2023-08-08T04:28:36;3.83;;;3.20;;
3769;SDS011;1900;48.890;9.190;2023-08-08T04:31:01;3.50;;;3.00;;
3769;SDS011;1900;48.890;9.190;2023-08-08T04:33:30;7.40;;;3.60;;
3769;SDS011;1900;48.890;9.190;2023-08-08T04:35:55;3.70;;;3.23;;
3769;SDS011;1900;48.890;9.190;2023-08-08T04:38:21;6.30;;;3.73;;
3769;SDS011;1900;48.890;9.190;2023-08-08T04:40:46;6.87;;;3.10;;
3769;SDS011;1900;48.890;9.190;2023-08-08T04:43:12;8.63;;;3.30;;
3769;SDS011;1900;48.890;9.190;2023-08-08T04:45:38;3.80;;;2.63;;
3769;SDS011;1900;48.890;9.190;2023-08-08T04:48:04;4.80;;;3.10;;
3769;SDS011;1900;48.890;9.190;2023-08-08T04:50:29;4.03;;;2.70;;
3769;SDS011;1900;48.890;9.190;2023-08-08T04:52:55;5.23;;;3.20;;
3769;SDS011;1900;48.890;9.190;2023-08-08T04:55:21;6.27;;;3.13;;
3769;SDS011;1900;48.890;9.190;2023-08-08T04:57:46;3.20;;;2.70;;
3769;SDS011;1900;48.890;9.190;2023-08-08T05:00:13;3.60;;;2.30;;
3769;SDS011;1900;48.890;9.190;2023-08-08T05:02:39;3.67;;;2.17;;
3769;SDS011;1900;48.890;9.190;2023-08-08T05:05:06;2.60;;;1.90;;
3769;SDS011;1900;48.890;9.190;2023-08-08T05:07:32;5.07;;;3.03;;
3769;SDS011;1900;48.890;9.190;2023-08-08T05:09:58;2.37;;;2.00;;
3769;SDS011;1900;48.890;9.190;2023-08-08T05:12:23;2.07;;;1.87;;
3769;SDS011;1900;48.890;9.190;2023-08-08T05:14:49;4.13;;;2.20;;
3769;SDS011;1900;48.890;9.190;2023-08-08T05:17:14;4.40;;;2.00;;
3769;SDS011;1900;48.890;9.190;2023-08-08T05:19:40;4.83;;;2.00;;
3769;SDS011;1900;48.890;9.190;2023-08-08T05:22:06;3.30;;;1.97;;
3769;SDS011;1900;48.890;9.190;2023-08-08T05:24:31;5.23;;;2.23;;
3769;SDS011;1900;48.890;9.190;2023-08-08T05:26:57;4.50;;;2.70;;
3769;SDS011;1900;48.890;9.190;2023-08-08T05:29:23;3.80;;;2.40;;
3769;SDS011;1900;48.890;9.190;2023-08-08T05:31:48;5.53;;;2.73;;
3769;SDS011;1900;48.890;9.190;2023-08-08T05:34:14;4.13;;;2.80;;
3769;SDS011;1900;48.890;9.190;2023-08-08T05:36:40;4.67;;;3.00;;
3769;SDS011;1900;48.890;9.190;2023-08-08T05:39:05;3.60;;;3.17;;
3769;SDS011;1900;48.890;9.190;2023-08-08T05:41:32;5.20;;;2.80;;
3769;SDS011;1900;48.890;9.190;2023-08-08T05:43:58;3.07;;;2.70;;
3769;SDS011;1900;48.890;9.190;2023-08-08T05:46:24;4.33;;;2.63;;
3769;SDS011;1900;48.890;9.190;2023-08-08T05:48:49;3.93;;;2.20;;
3769;SDS011;1900;48.890;9.190;2023-08-08T05:51:15;3.47;;;2.60;;
3769;SDS011;1900;48.890;9.190;2023-08-08T05:53:41;6.90;;;3.10;;
3769;SDS011;1900;48.890;9.190;2023-08-08T05:56:06;2.93;;;2.23;;
3769;SDS011;1900;48.890;9.190;2023-08-08T05:58:33;4.83;;;2.70;;
3769;SDS011;1900;48.890;9.190;2023-08-08T06:01:02;6.20;;;2.93;;
3769;SDS011;1900;48.890;9.190;2023-08-08T06:03:31;6.47;;;2.63;;
3769;SDS011;1900;48.890;9.190;2023-08-08T06:05:57;3.43;;;2.40;;
3769;SDS011;1900;48.890;9.190;2023-08-08T06:08:22;4.27;;;2.33;;
3769;SDS011;1900;48.890;9.190;2023-08-08T06:10:48;2.60;;;2.10;;
3769;SDS011;1900;48.890;9.190;2023-08-08T06:13:14;2.20;;;1.93;;
3769;SDS011;1900;48.890;9.190;2023-08-08T06:15:40;6.87;;;2.17;;
3769;SDS011;1900;48.890;9.190;2023-08-08T06:18:05;2.60;;;1.97;;
3769;SDS011;1900;48.890;9.190;2023-08-08T06:20:31;3.00;;;2.57;;
3769;SDS011;1900;48.890;9.190;2023-08-08T06:22:57;11.40;;;2.57;;
3769;SDS011;1900;48.890;9.190;2023-08-08T06:25:22;7.03;;;2.60;;
3769;SDS011;1900;48.890;9.190;2023-08-08T06:27:48;4.20;;;2.40;;
3769;SDS011;1900;48.890;9.190;2023-08-08T06:30:14;3.80;;;2.07;;
3769;SDS011;1900;48.890;9.190;2023-08-08T06:32:40;4.00;;;2.10;;
3769;SDS011;1900;48.890;9.190;2023-08-08T06:35:06;3.17;;;2.47;;
3769;SDS011;1900;48.890;9.190;2023-08-08T06:37:32;2.43;;;2.00;;
3769;SDS011;1900;48.890;9.190;2023-08-08T06:39:58;4.50;;;2.17;;
3769;SDS011;1900;48.890;9.190;2023-08-08T06:42:23;4.87;;;2.30;;
3769;SDS011;1900;48.890;9.190;2023-08-08T06:44:54;5.30;;;2.13;;
3769;SDS011;1900;48.890;9.190;2023-08-08T06:47:20;3.17;;;2.43;;
3769;SDS011;1900;48.890;9.190;2023-08-08T06:49:46;3.00;;;2.17;;
3769;SDS011;1900;48.890;9.190;2023-08-08T06:52:11;1.73;;;1.63;;
3769;SDS011;1900;48.890;9.190;2023-08-08T06:54:37;4.53;;;2.10;;
3769;SDS011;1900;48.890;9.190;2023-08-08T06:57:03;3.17;;;1.77;;
3769;SDS011;1900;48.890;9.190;2023-08-08T06:59:29;2.30;;;1.80;;
3769;SDS011;1900;48.890;9.190;2023-08-08T07:01:55;7.03;;;2.60;;
3769;SDS011;1900;48.890;9.190;2023-08-08T07:04:21;2.97;;;2.03;;
3769;SDS011;1900;48.890;9.190;2023-08-08T07:06:47;2.00;;;1.70;;
3769;SDS011;1900;48.890;9.190;2023-08-08T07:09:13;3.17;;;1.90;;
3769;SDS011;1900;48.890;9.190;2023-08-08T07:11:40;3.30;;;1.80;;
3769;SDS011;1900;48.890;9.190;2023-08-08T07:14:05;2.70;;;1.93;;
3769;SDS011;1900;48.890;9.190;2023-08-08T07:16:31;3.10;;;2.07;;
3769;SDS011;1900;48.890;9.190;2023-08-08T07:18:57;3.70;;;2.17;;
3769;SDS011;1900;48.890;9.190;2023-08-08T07:21:23;2.00;;;1.60;;
3769;SDS011;1900;48.890;9.190;2023-08-08T07:23:48;1.83;;;1.60;;
3769;SDS011;1900;48.890;9.190;2023-08-08T07:26:14;2.80;;;2.00;;
3769;SDS011;1900;48.890;9.190;2023-08-08T07:28:40;2.23;;;1.80;;
3769;SDS011;1900;48.890;9.190;2023-08-08T07:31:05;2.50;;;1.80;;
3769;SDS011;1900;48.890;9.190;2023-08-08T07:33:31;2.00;;;1.80;;
3769;SDS011;1900;48.890;9.190;2023-08-08T07:35:57;7.67;;;2.17;;
3769;SDS011;1900;48.890;9.190;2023-08-08T07:38:23;1.50;;;1.40;;
3769;SDS011;1900;48.890;9.190;2023-08-08T07:40:51;2.80;;;1.83;;
3769;SDS011;1900;48.890;9.190;2023-08-08T07:43:17;4.50;;;2.13;;
3769;SDS011;1900;48.890;9.190;2023-08-08T07:45:42;4.20;;;1.93;;
3769;SDS011;1900;48.890;9.190;2023-08-08T07:48:08;2.67;;;1.90;;
3769;SDS011;1900;48.890;9.190;2023-08-08T07:50:34;4.70;;;1.90;;
3769;SDS011;1900;48.890;9.190;2023-08-08T07:52:59;4.10;;;2.60;;
3769;SDS011;1900;48.890;9.190;2023-08-08T07:55:25;4.23;;;1.77;;
3769;SDS011;1900;48.890;9.190;2023-08-08T07:57:51;2.50;;;1.80;;
3769;SDS011;1900;48.890;9.190;2023-08-08T08:00:17;8.70;;;2.37;;
3769;SDS011;1900;48.890;9.190;2023-08-08T08:02:43;3.67;;;1.80;;
3769;SDS011;1900;48.890;9.190;2023-08-08T08:05:10;12.33;;;2.20;;
3769;SDS011;1900;48.890;9.190;2023-08-08T08:07:37;2.63;;;2.00;;
3769;SDS011;1900;48.890;9.190;2023-08-08T08:10:04;1.97;;;1.83;;
3769;SDS011;1900;48.890;9.190;2023-08-08T08:12:31;2.77;;;2.23;;
3769;SDS011;1900;48.890;9.190;2023-08-08T08:14:57;2.10;;;1.83;;
3769;SDS011;1900;48.890;9.190;2023-08-08T08:17:23;2.40;;;1.87;;
3769;SDS011;1900;48.890;9.190;2023-08-08T08:19:51;3.00;;;2.00;;
3769;SDS011;1900;48.890;9.190;2023-08-08T08:22:17;3.10;;;2.07;;
3769;SDS011;1900;48.890;9.190;2023-08-08T08:24:43;2.37;;;1.80;;
3769;SDS011;1900;48.890;9.190;2023-08-08T08:27:09;2.70;;;1.70;;
3769;SDS011;1900;48.890;9.190;2023-08-08T08:29:34;2.50;;;1.93;;
3769;SDS011;1900;48.890;9.190;2023-08-08T08:32:00;3.93;;;2.00;;
3769;SDS011;1900;48.890;9.190;2023-08-08T08:34:26;2.57;;;1.70;;
3769;SDS011;1900;48.890;9.190;2023-08-08T08:36:51;5.00;;;2.10;;
3769;SDS011;1900;48.890;9.190;2023-08-08T08:39:17;2.20;;;1.80;;
3769;SDS011;1900;48.890;9.190;2023-08-08T08:41:43;2.20;;;1.90;;
3769;SDS011;1900;48.890;9.190;2023-08-08T08:44:14;1.97;;;1.70;;
3769;SDS011;1900;48.890;9.190;2023-08-08T08:46:41;3.37;;;1.70;;
3769;SDS011;1900;48.890;9.190;2023-08-08T08:49:07;2.37;;;1.50;;
3769;SDS011;1900;48.890;9.190;2023-08-08T08:51:38;3.07;;;1.70;;
3769;SDS011;1900;48.890;9.190;2023-08-08T08:54:04;4.33;;;1.97;;
3769;SDS011;1900;48.890;9.190;2023-08-08T08:56:31;3.63;;;1.60;;
3769;SDS011;1900;48.890;9.190;2023-08-08T08:58:58;3.20;;;1.70;;
3769;SDS011;1900;48.890;9.190;2023-08-08T09:01:24;6.13;;;1.70;;
3769;SDS011;1900;48.890;9.190;2023-08-08T09:03:52;4.20;;;1.90;;
3769;SDS011;1900;48.890;9.190;2023-08-08T09:06:18;3.30;;;1.90;;
3769;SDS011;1900;48.890;9.190;2023-08-08T09:08:46;5.80;;;1.40;;
3769;SDS011;1900;48.890;9.190;2023-08-08T09:11:12;4.73;;;1.90;;
3769;SDS011;1900;48.890;9.190;2023-08-08T09:13:38;5.50;;;1.90;;
3769;SDS011;1900;48.890;9.190;2023-08-08T09:16:08;4.70;;;1.90;;
3769;SDS011;1900;48.890;9.190;2023-08-08T09:18:34;5.57;;;1.60;;
3769;SDS011;1900;48.890;9.190;2023-08-08T09:21:03;4.27;;;1.73;;
3769;SDS011;1900;48.890;9.190;2023-08-08T09:23:30;5.67;;;2.37;;
3769;SDS011;1900;48.890;9.190;2023-08-08T09:25:55;4.83;;;1.73;;
3769;SDS011;1900;48.890;9.190;2023-08-08T09:28:21;2.93;;;2.20;;
3769;SDS011;1900;48.890;9.190;2023-08-08T09:30:47;7.57;;;2.30;;
3769;SDS011;1900;48.890;9.190;2023-08-08T09:33:13;2.63;;;1.40;;
3769;SDS011;1900;48.890;9.190;2023-08-08T09:35:39;3.90;;;1.87;;
3769;SDS011;1900;48.890;9.190;2023-08-08T09:38:04;3.57;;;1.93;;
3769;SDS011;1900;48.890;9.190;2023-08-08T09:40:30;2.80;;;1.80;;
3769;SDS011;1900;48.890;9.190;2023-08-08T09:42:57;2.00;;;1.80;;
3769;SDS011;1900;48.890;9.190;2023-08-08T09:45:25;1.87;;;1.60;;
3769;SDS011;1900;48.890;9.190;2023-08-08T09:47:51;2.10;;;1.80;;
3769;SDS011;1900;48.890;9.190;2023-08-08T09:50:17;3.47;;;1.97;;
3769;SDS011;1900;48.890;9.190;2023-08-08T09:52:45;2.83;;;1.67;;
3769;SDS011;1900;48.890;9.190;2023-08-08T09:55:11;3.13;;;1.60;;
3769;SDS011;1900;48.890;9.190;2023-08-08T09:57:38;3.37;;;1.80;;
3769;SDS011;1900;48.890;9.190;2023-08-08T10:00:05;3.90;;;1.93;;
3769;SDS011;1900;48.890;9.190;2023-08-08T10:02:36;4.60;;;1.90;;
3769;SDS011;1900;48.890;9.190;2023-08-08T10:05:05;8.70;;;2.10;;
3769;SDS011;1900;48.890;9.190;2023-08-08T10:07:31;2.33;;;1.50;;
3769;SDS011;1900;48.890;9.190;2023-08-08T10:09:57;2.23;;;1.67;;
3769;SDS011;1900;48.890;9.190;2023-08-08T10:12:24;4.97;;;2.30;;
3769;SDS011;1900;48.890;9.190;2023-08-08T10:14:55;2.53;;;1.60;;
3769;SDS011;1900;48.890;9.190;2023-08-08T10:17:21;5.43;;;1.77;;
3769;SDS011;1900;48.890;9.190;2023-08-08T10:19:54;3.10;;;1.90;;
3769;SDS011;1900;48.890;9.190;2023-08-08T10:22:22;2.97;;;2.20;;
3769;SDS011;1900;48.890;9.190;2023-08-08T10:24:52;1.93;;;1.70;;
3769;SDS011;1900;48.890;9.190;2023-08-08T10:27:31;2.80;;;1.87;;
3769;SDS011;1900;48.890;9.190;2023-08-08T10:30:05;3.43;;;1.80;;
3769;SDS011;1900;48.890;9.190;2023-08-08T10:32:40;3.80;;;1.53;;
3769;SDS011;1900;48.890;9.190;2023-08-08T10:35:12;3.07;;;1.80;;
3769;SDS011;1900;48.890;9.190;2023-08-08T10:37:37;2.10;;;1.40;;
3769;SDS011;1900;48.890;9.190;2023-08-08T10:40:04;2.57;;;1.60;;
3769;SDS011;1900;48.890;9.190;2023-08-08T10:42:33;5.20;;;2.23;;
3769;SDS011;1900;48.890;9.190;2023-08-08T10:45:09;4.07;;;2.10;;
3769;SDS011;1900;48.890;9.190;2023-08-08T10:47:38;4.00;;;1.90;;
3769;SDS011;1900;48.890;9.190;2023-08-08T10:50:05;2.80;;;1.67;;
3769;SDS011;1900;48.890;9.190;2023-08-08T10:55:19;2.63;;;1.50;;
3769;SDS011;1900;48.890;9.190;2023-08-08T11:00:45;3.70;;;2.53;;
3769;SDS011;1900;48.890;9.190;2023-08-08T11:03:11;6.07;;;1.90;;
3769;SDS011;1900;48.890;9.190;2023-08-08T11:05:37;1.73;;;1.50;;
3769;SDS011;1900;48.890;9.190;2023-08-08T11:08:04;2.80;;;1.43;;
3769;SDS011;1900;48.890;9.190;2023-08-08T11:10:40;4.50;;;1.90;;
3769;SDS011;1900;48.890;9.190;2023-08-08T11:13:07;5.57;;;2.20;;
3769;SDS011;1900;48.890;9.190;2023-08-08T11:15:33;3.00;;;2.17;;
3769;SDS011;1900;48.890;9.190;2023-08-08T11:18:00;3.07;;;2.43;;
3769;SDS011;1900;48.890;9.190;2023-08-08T11:20:31;6.63;;;1.70;;
3769;SDS011;1900;48.890;9.190;2023-08-08T11:22:58;1.97;;;1.40;;
3769;SDS011;1900;48.890;9.190;2023-08-08T11:25:29;3.27;;;2.10;;
3769;SDS011;1900;48.890;9.190;2023-08-08T11:27:56;3.77;;;1.53;;
3769;SDS011;1900;48.890;9.190;2023-08-08T11:30:23;3.40;;;2.20;;
3769;SDS011;1900;48.890;9.190;2023-08-08T11:32:49;2.73;;;1.83;;
3769;SDS011;1900;48.890;9.190;2023-08-08T11:35:21;5.33;;;2.40;;
3769;SDS011;1900;48.890;9.190;2023-08-08T11:37:48;2.20;;;1.63;;
3769;SDS011;1900;48.890;9.190;2023-08-08T11:40:16;5.13;;;2.10;;
3769;SDS011;1900;48.890;9.190;2023-08-08T11:42:43;1.73;;;1.63;;
3769;SDS011;1900;48.890;9.190;2023-08-08T11:45:11;1.70;;;1.20;;
3769;SDS011;1900;48.890;9.190;2023-08-08T11:47:38;6.33;;;1.77;;
3769;SDS011;1900;48.890;9.190;2023-08-08T11:50:08;4.73;;;2.90;;
3769;SDS011;1900;48.890;9.190;2023-08-08T11:52:36;5.50;;;1.73;;
3769;SDS011;1900;48.890;9.190;2023-08-08T11:55:10;1.90;;;1.40;;
3769;SDS011;1900;48.890;9.190;2023-08-08T11:57:37;5.00;;;1.73;;
3769;SDS011;1900;48.890;9.190;2023-08-08T12:00:05;2.43;;;1.70;;
3769;SDS011;1900;48.890;9.190;2023-08-08T12:02:39;3.10;;;1.87;;
3769;SDS011;1900;48.890;9.190;2023-08-08T12:05:06;1.93;;;1.50;;
3769;SDS011;1900;48.890;9.190;2023-08-08T12:07:33;3.50;;;1.70;;
3769;SDS011;1900;48.890;9.190;2023-08-08T12:10:04;2.30;;;1.67;;
3769;SDS011;1900;48.890;9.190;2023-08-08T12:12:33;2.13;;;1.50;;
3769;SDS011;1900;48.890;9.190;2023-08-08T12:15:07;1.80;;;1.70;;
3769;SDS011;1900;48.890;9.190;2023-08-08T12:17:36;3.00;;;2.20;;
3769;SDS011;1900;48.890;9.190;2023-08-08T12:20:03;2.77;;;1.63;;
3769;SDS011;1900;48.890;9.190;2023-08-08T12:22:30;3.87;;;2.40;;
3769;SDS011;1900;48.890;9.190;2023-08-08T12:24:56;5.07;;;2.13;;
3769;SDS011;1900;48.890;9.190;2023-08-08T12:27:22;2.60;;;1.80;;
3769;SDS011;1900;48.890;9.190;2023-08-08T12:29:48;10.80;;;1.90;;
3769;SDS011;1900;48.890;9.190;2023-08-08T12:32:13;2.03;;;1.70;;
3769;SDS011;1900;48.890;9.190;2023-08-08T12:34:39;4.73;;;1.63;;
3769;SDS011;1900;48.890;9.190;2023-08-08T12:37:05;5.60;;;2.20;;
3769;SDS011;1900;48.890;9.190;2023-08-08T12:39:30;2.60;;;1.60;;
3769;SDS011;1900;48.890;9.190;2023-08-08T12:41:56;2.67;;;1.97;;
3769;SDS011;1900;48.890;9.190;2023-08-08T12:44:22;4.33;;;1.67;;
3769;SDS011;1900;48.890;9.190;2023-08-08T12:46:48;2.73;;;1.70;;
3769;SDS011;1900;48.890;9.190;2023-08-08T12:49:14;1.63;;;1.40;;
3769;SDS011;1900;48.890;9.190;2023-08-08T12:51:39;4.20;;;2.10;;
3769;SDS011;1900;48.890;9.190;2023-08-08T12:54:05;2.27;;;1.60;;
3769;SDS011;1900;48.890;9.190;2023-08-08T12:56:31;2.20;;;1.50;;
3769;SDS011;1900;48.890;9.190;2023-08-08T12:58:56;4.07;;;1.50;;
3769;SDS011;1900;48.890;9.190;2023-08-08T13:01:22;1.97;;;1.40;;
3769;SDS011;1900;48.890;9.190;2023-08-08T13:03:50;3.47;;;1.70;;
3769;SDS011;1900;48.890;9.190;2023-08-08T13:06:16;6.33;;;1.53;;
3769;SDS011;1900;48.890;9.190;2023-08-08T13:08:41;2.40;;;1.50;;
3769;SDS011;1900;48.890;9.190;2023-08-08T13:11:07;2.13;;;1.63;;
3769;SDS011;1900;48.890;9.190;2023-08-08T13:13:33;5.03;;;1.80;;
3769;SDS011;1900;48.890;9.190;2023-08-08T13:15:59;1.73;;;1.50;;
3769;SDS011;1900;48.890;9.190;2023-08-08T13:18:25;4.00;;;1.67;;
3769;SDS011;1900;48.890;9.190;2023-08-08T13:20:51;3.10;;;1.70;;
3769;SDS011;1900;48.890;9.190;2023-08-08T13:23:17;2.30;;;1.30;;
3769;SDS011;1900;48.890;9.190;2023-08-08T13:25:43;2.30;;;1.30;;
3769;SDS011;1900;48.890;9.190;2023-08-08T13:28:09;5.27;;;1.70;;
3769;SDS011;1900;48.890;9.190;2023-08-08T13:30:35;3.03;;;1.50;;
3769;SDS011;1900;48.890;9.190;2023-08-08T13:33:01;5.20;;;1.67;;
3769;SDS011;1900;48.890;9.190;2023-08-08T13:35:27;4.10;;;1.70;;
3769;SDS011;1900;48.890;9.190;2023-08-08T13:37:52;1.73;;;1.50;;
3769;SDS011;1900;48.890;9.190;2023-08-08T13:40:20;2.00;;;1.40;;
3769;SDS011;1900;48.890;9.190;2023-08-08T13:42:45;3.20;;;1.60;;
3769;SDS011;1900;48.890;9.190;2023-08-08T13:45:19;2.47;;;1.50;;
3769;SDS011;1900;48.890;9.190;2023-08-08T13:47:46;2.20;;;1.30;;
3769;SDS011;1900;48.890;9.190;2023-08-08T13:50:15;2.80;;;1.50;;
3769;SDS011;1900;48.890;9.190;2023-08-08T13:52:41;2.20;;;1.80;;
3769;SDS011;1900;48.890;9.190;2023-08-08T13:55:07;3.60;;;1.67;;
3769;SDS011;1900;48.890;9.190;2023-08-08T13:57:34;2.80;;;1.47;;
3769;SDS011;1900;48.890;9.190;2023-08-08T14:00:00;3.17;;;1.53;;
3769;SDS011;1900;48.890;9.190;2023-08-08T14:02:29;1.93;;;1.23;;
3769;SDS011;1900;48.890;9.190;2023-08-08T14:04:55;3.60;;;1.93;;
3769;SDS011;1900;48.890;9.190;2023-08-08T14:07:20;2.40;;;1.43;;
3769;SDS011;1900;48.890;9.190;2023-08-08T14:09:46;1.67;;;1.57;;
3769;SDS011;1900;48.890;9.190;2023-08-08T14:12:12;2.43;;;1.60;;
3769;SDS011;1900;48.890;9.190;2023-08-08T14:14:38;1.20;;;1.10;;
3769;SDS011;1900;48.890;9.190;2023-08-08T14:17:03;5.07;;;1.90;;
3769;SDS011;1900;48.890;9.190;2023-08-08T14:19:29;3.43;;;1.43;;
3769;SDS011;1900;48.890;9.190;2023-08-08T14:21:55;2.80;;;1.30;;
3769;SDS011;1900;48.890;9.190;2023-08-08T14:24:21;2.57;;;1.80;;
3769;SDS011;1900;48.890;9.190;2023-08-08T14:26:46;4.70;;;1.43;;
3769;SDS011;1900;48.890;9.190;2023-08-08T14:29:12;2.20;;;1.60;;
3769;SDS011;1900;48.890;9.190;2023-08-08T14:31:38;2.50;;;1.50;;
3769;SDS011;1900;48.890;9.190;2023-08-08T14:34:04;2.20;;;1.60;;
3769;SDS011;1900;48.890;9.190;2023-08-08T14:36:30;3.93;;;1.83;;
3769;SDS011;1900;48.890;9.190;2023-08-08T14:38:55;2.53;;;2.00;;
3769;SDS011;1900;48.890;9.190;2023-08-08T14:41:21;2.40;;;1.57;;
3769;SDS011;1900;48.890;9.190;2023-08-08T14:43:47;3.23;;;1.70;;
3769;SDS011;1900;48.890;9.190;2023-08-08T14:46:13;1.77;;;1.40;;
3769;SDS011;1900;48.890;9.190;2023-08-08T14:48:39;3.13;;;2.13;;
3769;SDS011;1900;48.890;9.190;2023-08-08T14:51:04;1.57;;;1.47;;
3769;SDS011;1900;48.890;9.190;2023-08-08T14:53:30;3.93;;;1.70;;
3769;SDS011;1900;48.890;9.190;2023-08-08T14:55:56;3.37;;;2.20;;
3769;SDS011;1900;48.890;9.190;2023-08-08T14:58:21;3.23;;;2.17;;
3769;SDS011;1900;48.890;9.190;2023-08-08T15:00:47;3.40;;;2.10;;
3769;SDS011;1900;48.890;9.190;2023-08-08T15:03:13;3.57;;;1.90;;
3769;SDS011;1900;48.890;9.190;2023-08-08T15:05:39;3.10;;;1.90;;
3769;SDS011;1900;48.890;9.190;2023-08-08T15:08:06;1.80;;;1.50;;
3769;SDS011;1900;48.890;9.190;2023-08-08T15:10:34;3.97;;;1.60;;
3769;SDS011;1900;48.890;9.190;2023-08-08T15:13:00;2.23;;;1.73;;
3769;SDS011;1900;48.890;9.190;2023-08-08T15:15:26;1.93;;;1.67;;
3769;SDS011;1900;48.890;9.190;2023-08-08T15:17:52;2.13;;;1.60;;
3769;SDS011;1900;48.890;9.190;2023-08-08T15:20:18;2.43;;;1.60;;